Terminal Aerodrome Forecast
Issued by NWS

Home | Current Version | Previous Version | Graphics & Text | Print | Product List | Glossary On
Versions: 1 2 3 4 5 6 7 8 9 10 11 12 13 14 15 16 17 18 19 20 21 22 23 24 25 26 27
622
FTUS43 KLOT 181127
TAFORD
TAF
KORD 181127Z 1812/1918 09014G20KT P6SM BKN030
     FM181700 07014G21KT 4SM -SHRA VCTS OVC025CB
      TEMPO 1817/1820 2SM TSRAGS
     FM182000 01012G20KT 1 1/2SM -DZRA BR OVC006
     FM190100 34014G22KT 1SM -SN BR OVC007
     FM190700 34011KT P6SM BKN015
     FM191000 35010KT P6SM SCT100=

USA.gov is the U.S. government's official web portal to all federal, state and local government web resources and services.